GLO1734 SBSN-SBBE
Flight info
| Callsign | GLO1734 |
|---|---|
| Flight time | 1h 4m |
| Altitude | 35000 |
| Route | EMAKE DCT PAKUT |
| Aircraft | B738/M-SDE2E3FGHIRWXY/LB1 |
Departure
| Time | 2026-05-08 16:28 |
|---|---|
| Airport | Santarém - Maestro Wilson Fonseca International Airport (SBSN) |
Arrival
| Time | 2026-05-08 17:33 |
|---|---|
| Airport | Val de Cans/Júlio Cezar Ribeiro International Airport (SBBE) |
| Time | Latitude | Longitude | Altitude | Speed | Heading |
|---|---|---|---|---|---|
| 2026-05-08 16:13 | -2.42348 | -54.78470 | 212 ft | 0 kts | 166° |
| 2026-05-08 16:22 | -2.42350 | -54.78472 | 205 ft | 1 kts | 199° |
| 2026-05-08 16:23 | -2.42350 | -54.78488 | 211 ft | 6 kts | 277° |
| 2026-05-08 16:23 | -2.42342 | -54.78553 | 211 ft | 11 kts | 276° |
| 2026-05-08 16:23 | -2.42323 | -54.78623 | 207 ft | 10 kts | 304° |
| 2026-05-08 16:23 | -2.42272 | -54.78672 | 214 ft | 10 kts | 319° |
| 2026-05-08 16:24 | -2.42220 | -54.78717 | 205 ft | 10 kts | 319° |
| 2026-05-08 16:24 | -2.42173 | -54.78765 | 212 ft | 10 kts | 300° |
| 2026-05-08 16:24 | -2.42165 | -54.78834 | 208 ft | 12 kts | 263° |
| 2026-05-08 16:24 | -2.42182 | -54.78931 | 207 ft | 17 kts | 260° |
| 2026-05-08 16:25 | -2.42204 | -54.79067 | 212 ft | 22 kts | 261° |
| 2026-05-08 16:25 | -2.42231 | -54.79228 | 210 ft | 24 kts | 261° |
| 2026-05-08 16:25 | -2.42256 | -54.79388 | 208 ft | 23 kts | 261° |
| 2026-05-08 16:25 | -2.42281 | -54.79542 | 207 ft | 22 kts | 261° |
| 2026-05-08 16:26 | -2.42306 | -54.79692 | 209 ft | 21 kts | 260° |
| 2026-05-08 16:26 | -2.42329 | -54.79837 | 205 ft | 21 kts | 261° |
| 2026-05-08 16:26 | -2.42352 | -54.79978 | 207 ft | 20 kts | 261° |
| 2026-05-08 16:26 | -2.42374 | -54.80115 | 206 ft | 20 kts | 261° |
| 2026-05-08 16:27 | -2.42397 | -54.80245 | 208 ft | 19 kts | 251° |
| 2026-05-08 16:27 | -2.42433 | -54.80335 | 206 ft | 13 kts | 335° |
| 2026-05-08 16:27 | -2.42405 | -54.80306 | 204 ft | 0 kts | 81° |
| 2026-05-08 16:28 | -2.42398 | -54.80263 | 207 ft | 30 kts | 81° |
| 2026-05-08 16:28 | -2.42323 | -54.79801 | 204 ft | 103 kts | 81° |
| 2026-05-08 16:28 | -2.42172 | -54.78882 | 219 ft | 163 kts | 82° |
| 2026-05-08 16:28 | -2.41982 | -54.77701 | 864 ft | 170 kts | 81° |
| 2026-05-08 16:29 | -2.41794 | -54.76533 | 1752 ft | 171 kts | 79° |
| 2026-05-08 16:29 | -2.41509 | -54.75332 | 2355 ft | 191 kts | 75° |
| 2026-05-08 16:29 | -2.41129 | -54.73956 | 2612 ft | 218 kts | 75° |
| 2026-05-08 16:29 | -2.40708 | -54.72436 | 3016 ft | 233 kts | 75° |
| 2026-05-08 16:30 | -2.40269 | -54.70854 | 3597 ft | 239 kts | 75° |
| 2026-05-08 16:30 | -2.39827 | -54.69246 | 4252 ft | 241 kts | 75° |
| 2026-05-08 16:30 | -2.39376 | -54.67596 | 4735 ft | 255 kts | 76° |
| 2026-05-08 16:30 | -2.38899 | -54.65843 | 5348 ft | 265 kts | 76° |
| 2026-05-08 16:31 | -2.38414 | -54.64057 | 6219 ft | 267 kts | 76° |
| 2026-05-08 16:31 | -2.37927 | -54.62258 | 7026 ft | 270 kts | 76° |
| 2026-05-08 16:31 | -2.37434 | -54.60433 | 7753 ft | 275 kts | 76° |
| 2026-05-08 16:31 | -2.36933 | -54.58578 | 8520 ft | 278 kts | 76° |
| 2026-05-08 16:32 | -2.36424 | -54.56696 | 9266 ft | 283 kts | 76° |
| 2026-05-08 16:32 | -2.35908 | -54.54786 | 10002 ft | 287 kts | 75° |
| 2026-05-08 16:32 | -2.35377 | -54.52819 | 10420 ft | 304 kts | 75° |
| 2026-05-08 16:32 | -2.34806 | -54.50701 | 10601 ft | 326 kts | 75° |
| 2026-05-08 16:33 | -2.34201 | -54.48457 | 10965 ft | 340 kts | 75° |
| 2026-05-08 16:33 | -2.33580 | -54.46152 | 11572 ft | 345 kts | 75° |
| 2026-05-08 16:33 | -2.32955 | -54.43831 | 12295 ft | 346 kts | 75° |
| 2026-05-08 16:33 | -2.32323 | -54.41487 | 12910 ft | 351 kts | 75° |
| 2026-05-08 16:34 | -2.31685 | -54.39120 | 13542 ft | 355 kts | 75° |
| 2026-05-08 16:34 | -2.31039 | -54.36726 | 14116 ft | 358 kts | 75° |
| 2026-05-08 16:34 | -2.30387 | -54.34307 | 14676 ft | 362 kts | 75° |
| 2026-05-08 16:34 | -2.29728 | -54.31869 | 15236 ft | 365 kts | 75° |
| 2026-05-08 16:35 | -2.29065 | -54.29410 | 15796 ft | 368 kts | 75° |
| 2026-05-08 16:35 | -2.28405 | -54.26964 | 16327 ft | 371 kts | 75° |
| 2026-05-08 16:35 | -2.27730 | -54.24459 | 16851 ft | 375 kts | 76° |
| 2026-05-08 16:35 | -2.27050 | -54.21934 | 17385 ft | 378 kts | 76° |
| 2026-05-08 16:36 | -2.26362 | -54.19384 | 17894 ft | 381 kts | 76° |
| 2026-05-08 16:36 | -2.25704 | -54.16808 | 18375 ft | 384 kts | 79° |
| 2026-05-08 16:36 | -2.25249 | -54.14172 | 18822 ft | 386 kts | 82° |
| 2026-05-08 16:36 | -2.24867 | -54.11508 | 19281 ft | 388 kts | 83° |
| 2026-05-08 16:37 | -2.24508 | -54.08821 | 19726 ft | 390 kts | 83° |
| 2026-05-08 16:37 | -2.24149 | -54.06122 | 20159 ft | 393 kts | 83° |
| 2026-05-08 16:37 | -2.23783 | -54.03407 | 20591 ft | 395 kts | 83° |
| 2026-05-08 16:37 | -2.23407 | -54.00675 | 21030 ft | 397 kts | 83° |
| 2026-05-08 16:38 | -2.23024 | -53.97931 | 21454 ft | 400 kts | 83° |
| 2026-05-08 16:38 | -2.22635 | -53.95176 | 21862 ft | 402 kts | 83° |
| 2026-05-08 16:38 | -2.22241 | -53.92400 | 22269 ft | 404 kts | 83° |
| 2026-05-08 16:38 | -2.21843 | -53.89607 | 22670 ft | 406 kts | 83° |
| 2026-05-08 16:39 | -2.21442 | -53.86803 | 23057 ft | 409 kts | 83° |
| 2026-05-08 16:39 | -2.21038 | -53.83979 | 23437 ft | 411 kts | 83° |
| 2026-05-08 16:39 | -2.20632 | -53.81143 | 23757 ft | 413 kts | 83° |
| 2026-05-08 16:39 | -2.20224 | -53.78292 | 24052 ft | 416 kts | 83° |
| 2026-05-08 16:40 | -2.19813 | -53.75419 | 24343 ft | 418 kts | 83° |
| 2026-05-08 16:40 | -2.19400 | -53.72539 | 24723 ft | 418 kts | 83° |
| 2026-05-08 16:40 | -2.18987 | -53.69664 | 25068 ft | 419 kts | 83° |
| 2026-05-08 16:40 | -2.18571 | -53.66766 | 25312 ft | 423 kts | 82° |
| 2026-05-08 16:41 | -2.18153 | -53.63847 | 25565 ft | 426 kts | 83° |
| 2026-05-08 16:41 | -2.17732 | -53.60906 | 25848 ft | 428 kts | 83° |
| 2026-05-08 16:41 | -2.17310 | -53.57953 | 26137 ft | 430 kts | 83° |
| 2026-05-08 16:42 | -2.16460 | -53.52004 | 26691 ft | 435 kts | 83° |
| 2026-05-08 16:42 | -2.16037 | -53.49043 | 26952 ft | 437 kts | 83° |
| 2026-05-08 16:42 | -2.15600 | -53.45991 | 27226 ft | 439 kts | 83° |
| 2026-05-08 16:42 | -2.15166 | -53.42963 | 27489 ft | 441 kts | 83° |
| 2026-05-08 16:43 | -2.14730 | -53.39919 | 27728 ft | 444 kts | 83° |
| 2026-05-08 16:43 | -2.14297 | -53.36899 | 27964 ft | 446 kts | 83° |
| 2026-05-08 16:43 | -2.13857 | -53.33827 | 28211 ft | 448 kts | 83° |
| 2026-05-08 16:43 | -2.13407 | -53.30690 | 28465 ft | 450 kts | 83° |
| 2026-05-08 16:44 | -2.12968 | -53.27632 | 28694 ft | 453 kts | 83° |
| 2026-05-08 16:44 | -2.12520 | -53.24506 | 28919 ft | 455 kts | 83° |
| 2026-05-08 16:44 | -2.12069 | -53.21364 | 29137 ft | 457 kts | 83° |
| 2026-05-08 16:44 | -2.11615 | -53.18209 | 29360 ft | 459 kts | 83° |
| 2026-05-08 16:45 | -2.11159 | -53.15038 | 29572 ft | 461 kts | 83° |
| 2026-05-08 16:45 | -2.10703 | -53.11859 | 29834 ft | 462 kts | 83° |
| 2026-05-08 16:45 | -2.10247 | -53.08683 | 30121 ft | 462 kts | 83° |
| 2026-05-08 16:45 | -2.09790 | -53.05503 | 30409 ft | 461 kts | 83° |
| 2026-05-08 16:46 | -2.09335 | -53.02332 | 30695 ft | 461 kts | 83° |
| 2026-05-08 16:46 | -2.08880 | -52.99160 | 30964 ft | 461 kts | 83° |
| 2026-05-08 16:46 | -2.08426 | -52.95991 | 31228 ft | 461 kts | 83° |
| 2026-05-08 16:46 | -2.07971 | -52.92823 | 31520 ft | 460 kts | 83° |
| 2026-05-08 16:47 | -2.07518 | -52.89664 | 31821 ft | 459 kts | 83° |
| 2026-05-08 16:47 | -2.07064 | -52.86506 | 32088 ft | 459 kts | 83° |
| 2026-05-08 16:47 | -2.06610 | -52.83343 | 32342 ft | 460 kts | 83° |
| 2026-05-08 16:47 | -2.06156 | -52.80183 | 32640 ft | 459 kts | 83° |
| 2026-05-08 16:48 | -2.05702 | -52.77028 | 32942 ft | 458 kts | 83° |
| 2026-05-08 16:48 | -2.05249 | -52.73875 | 33219 ft | 458 kts | 83° |
| 2026-05-08 16:48 | -2.04796 | -52.70725 | 33485 ft | 458 kts | 83° |
| 2026-05-08 16:48 | -2.04342 | -52.67570 | 33748 ft | 458 kts | 83° |
| 2026-05-08 16:49 | -2.03889 | -52.64418 | 34007 ft | 458 kts | 83° |
| 2026-05-08 16:49 | -2.03436 | -52.61270 | 34242 ft | 458 kts | 83° |
| 2026-05-08 16:49 | -2.02989 | -52.58162 | 34456 ft | 458 kts | 83° |
| 2026-05-08 16:49 | -2.02536 | -52.55011 | 34679 ft | 458 kts | 83° |
| 2026-05-08 16:50 | -2.02083 | -52.51862 | 34893 ft | 458 kts | 83° |
| 2026-05-08 16:50 | -2.01172 | -52.45539 | 34931 ft | 460 kts | 83° |
| 2026-05-08 16:51 | -2.00259 | -52.39224 | 34930 ft | 458 kts | 83° |
| 2026-05-08 16:51 | -1.99354 | -52.32941 | 34931 ft | 456 kts | 83° |
| 2026-05-08 16:52 | -1.98453 | -52.26682 | 34937 ft | 454 kts | 83° |
| 2026-05-08 16:52 | -1.97555 | -52.20446 | 34931 ft | 453 kts | 82° |
| 2026-05-08 16:53 | -1.96213 | -52.11108 | 34934 ft | 452 kts | 82° |
| 2026-05-08 16:53 | -1.95315 | -52.04877 | 34940 ft | 454 kts | 82° |
| 2026-05-08 16:54 | -1.94406 | -51.98570 | 34944 ft | 463 kts | 82° |
| 2026-05-08 16:54 | -1.93479 | -51.92148 | 34940 ft | 471 kts | 82° |
| 2026-05-08 16:55 | -1.92537 | -51.85628 | 34941 ft | 477 kts | 82° |
| 2026-05-08 16:55 | -1.91583 | -51.79029 | 34931 ft | 482 kts | 82° |
| 2026-05-08 16:56 | -1.90624 | -51.72378 | 34926 ft | 485 kts | 82° |
| 2026-05-08 16:56 | -1.89670 | -51.65767 | 34914 ft | 478 kts | 82° |
| 2026-05-08 16:57 | -1.89201 | -51.62520 | 34912 ft | 465 kts | 82° |
| 2026-05-08 16:57 | -1.88741 | -51.59338 | 34921 ft | 461 kts | 82° |
| 2026-05-08 16:57 | -1.87831 | -51.53034 | 34925 ft | 455 kts | 82° |
| 2026-05-08 16:58 | -1.86929 | -51.46793 | 34928 ft | 452 kts | 82° |
| 2026-05-08 16:58 | -1.86032 | -51.40588 | 34921 ft | 451 kts | 82° |
| 2026-05-08 16:59 | -1.85131 | -51.34356 | 34938 ft | 456 kts | 82° |
| 2026-05-08 16:59 | -1.84220 | -51.28064 | 34919 ft | 457 kts | 81° |
| 2026-05-08 17:00 | -1.83311 | -51.21783 | 34916 ft | 456 kts | 81° |
| 2026-05-08 17:00 | -1.82406 | -51.15521 | 34922 ft | 455 kts | 81° |
| 2026-05-08 17:01 | -1.81655 | -51.10328 | 34926 ft | 454 kts | 81° |
| 2026-05-08 17:01 | -1.80753 | -51.04097 | 34921 ft | 452 kts | 81° |
| 2026-05-08 17:02 | -1.79861 | -50.97883 | 34924 ft | 451 kts | 83° |
| 2026-05-08 17:02 | -1.79493 | -50.91631 | 34937 ft | 449 kts | 88° |
| 2026-05-08 17:03 | -1.79394 | -50.84528 | 34919 ft | 435 kts | 88° |
| 2026-05-08 17:03 | -1.79236 | -50.79481 | 34845 ft | 432 kts | 85° |
| 2026-05-08 17:04 | -1.78980 | -50.76508 | 34578 ft | 426 kts | 83° |
| 2026-05-08 17:04 | -1.78663 | -50.73585 | 34230 ft | 422 kts | 83° |
| 2026-05-08 17:04 | -1.78330 | -50.70686 | 33865 ft | 419 kts | 83° |
| 2026-05-08 17:04 | -1.78002 | -50.67798 | 33445 ft | 417 kts | 83° |
| 2026-05-08 17:05 | -1.77686 | -50.64929 | 33044 ft | 414 kts | 83° |
| 2026-05-08 17:05 | -1.77381 | -50.62075 | 32647 ft | 412 kts | 84° |
| 2026-05-08 17:05 | -1.77085 | -50.59236 | 32269 ft | 409 kts | 84° |
| 2026-05-08 17:05 | -1.76800 | -50.56454 | 31897 ft | 407 kts | 84° |
| 2026-05-08 17:06 | -1.76516 | -50.53656 | 31524 ft | 405 kts | 85° |
| 2026-05-08 17:06 | -1.76232 | -50.50863 | 31156 ft | 402 kts | 85° |
| 2026-05-08 17:06 | -1.75951 | -50.48087 | 30782 ft | 401 kts | 85° |
| 2026-05-08 17:06 | -1.75672 | -50.45322 | 30416 ft | 399 kts | 85° |
| 2026-05-08 17:07 | -1.75394 | -50.42564 | 30036 ft | 398 kts | 85° |
| 2026-05-08 17:07 | -1.75117 | -50.39822 | 29616 ft | 396 kts | 85° |
| 2026-05-08 17:07 | -1.74841 | -50.37096 | 29208 ft | 393 kts | 85° |
| 2026-05-08 17:07 | -1.74567 | -50.34387 | 28811 ft | 391 kts | 85° |
| 2026-05-08 17:08 | -1.74295 | -50.31695 | 28425 ft | 388 kts | 85° |
| 2026-05-08 17:08 | -1.74024 | -50.29022 | 28047 ft | 385 kts | 85° |
| 2026-05-08 17:08 | -1.73755 | -50.26367 | 27675 ft | 382 kts | 85° |
| 2026-05-08 17:08 | -1.73489 | -50.23731 | 27298 ft | 380 kts | 85° |
| 2026-05-08 17:09 | -1.73223 | -50.21113 | 26932 ft | 378 kts | 85° |
| 2026-05-08 17:09 | -1.72959 | -50.18507 | 26566 ft | 375 kts | 85° |
| 2026-05-08 17:09 | -1.72697 | -50.15919 | 26204 ft | 373 kts | 85° |
| 2026-05-08 17:09 | -1.72436 | -50.13344 | 25841 ft | 372 kts | 85° |
| 2026-05-08 17:10 | -1.72177 | -50.10779 | 25483 ft | 370 kts | 85° |
| 2026-05-08 17:10 | -1.71918 | -50.08227 | 25113 ft | 369 kts | 85° |
| 2026-05-08 17:10 | -1.71660 | -50.05684 | 24758 ft | 367 kts | 85° |
| 2026-05-08 17:10 | -1.71403 | -50.03141 | 24386 ft | 367 kts | 85° |
| 2026-05-08 17:11 | -1.71146 | -50.00611 | 24019 ft | 366 kts | 85° |
| 2026-05-08 17:11 | -1.70889 | -49.98079 | 23656 ft | 365 kts | 85° |
| 2026-05-08 17:11 | -1.70634 | -49.95560 | 23254 ft | 364 kts | 85° |
| 2026-05-08 17:11 | -1.70379 | -49.93047 | 22865 ft | 362 kts | 85° |
| 2026-05-08 17:12 | -1.70125 | -49.90546 | 22497 ft | 360 kts | 85° |
| 2026-05-08 17:12 | -1.69873 | -49.88064 | 22141 ft | 358 kts | 85° |
| 2026-05-08 17:12 | -1.69626 | -49.85628 | 21786 ft | 357 kts | 85° |
| 2026-05-08 17:12 | -1.69376 | -49.83163 | 21433 ft | 355 kts | 85° |
| 2026-05-08 17:13 | -1.69127 | -49.80713 | 21072 ft | 353 kts | 85° |
| 2026-05-08 17:13 | -1.68880 | -49.78274 | 20721 ft | 351 kts | 85° |
| 2026-05-08 17:13 | -1.68635 | -49.75855 | 20380 ft | 349 kts | 85° |
| 2026-05-08 17:13 | -1.68390 | -49.73445 | 20042 ft | 347 kts | 85° |
| 2026-05-08 17:14 | -1.68145 | -49.71051 | 19697 ft | 346 kts | 85° |
| 2026-05-08 17:14 | -1.67902 | -49.68665 | 19354 ft | 344 kts | 85° |
| 2026-05-08 17:14 | -1.67660 | -49.66289 | 18998 ft | 343 kts | 85° |
| 2026-05-08 17:14 | -1.67420 | -49.63919 | 18660 ft | 342 kts | 84° |
| 2026-05-08 17:15 | -1.67181 | -49.61554 | 18318 ft | 341 kts | 84° |
| 2026-05-08 17:15 | -1.66942 | -49.59198 | 17938 ft | 341 kts | 84° |
| 2026-05-08 17:15 | -1.66703 | -49.56846 | 17577 ft | 338 kts | 84° |
| 2026-05-08 17:15 | -1.66467 | -49.54519 | 17225 ft | 336 kts | 84° |
| 2026-05-08 17:16 | -1.66231 | -49.52198 | 16886 ft | 334 kts | 84° |
| 2026-05-08 17:16 | -1.65997 | -49.49900 | 16549 ft | 331 kts | 84° |
| 2026-05-08 17:16 | -1.65765 | -49.47616 | 16216 ft | 329 kts | 84° |
| 2026-05-08 17:16 | -1.65534 | -49.45347 | 15893 ft | 327 kts | 84° |
| 2026-05-08 17:17 | -1.65304 | -49.43088 | 15554 ft | 325 kts | 84° |
| 2026-05-08 17:17 | -1.65076 | -49.40845 | 15241 ft | 323 kts | 84° |
| 2026-05-08 17:17 | -1.64848 | -49.38616 | 14920 ft | 321 kts | 84° |
| 2026-05-08 17:17 | -1.64622 | -49.36402 | 14594 ft | 319 kts | 84° |
| 2026-05-08 17:18 | -1.64398 | -49.34197 | 14281 ft | 318 kts | 84° |
| 2026-05-08 17:18 | -1.64175 | -49.32004 | 13963 ft | 316 kts | 84° |
| 2026-05-08 17:18 | -1.63954 | -49.29824 | 13627 ft | 315 kts | 84° |
| 2026-05-08 17:18 | -1.63733 | -49.27650 | 13270 ft | 314 kts | 84° |
| 2026-05-08 17:19 | -1.63513 | -49.25487 | 12934 ft | 312 kts | 84° |
| 2026-05-08 17:19 | -1.63295 | -49.23342 | 12606 ft | 309 kts | 84° |
| 2026-05-08 17:19 | -1.63081 | -49.21240 | 12291 ft | 307 kts | 84° |
| 2026-05-08 17:19 | -1.62866 | -49.19123 | 11979 ft | 305 kts | 84° |
| 2026-05-08 17:20 | -1.62652 | -49.17023 | 11666 ft | 303 kts | 84° |
| 2026-05-08 17:20 | -1.62439 | -49.14937 | 11363 ft | 301 kts | 84° |
| 2026-05-08 17:20 | -1.62228 | -49.12861 | 11045 ft | 299 kts | 84° |
| 2026-05-08 17:20 | -1.62017 | -49.10796 | 10745 ft | 298 kts | 84° |
| 2026-05-08 17:21 | -1.61809 | -49.08746 | 10441 ft | 296 kts | 84° |
| 2026-05-08 17:21 | -1.61601 | -49.06704 | 10142 ft | 294 kts | 84° |
| 2026-05-08 17:21 | -1.61396 | -49.04698 | 10017 ft | 286 kts | 84° |
| 2026-05-08 17:21 | -1.61197 | -49.02739 | 9778 ft | 282 kts | 84° |
| 2026-05-08 17:22 | -1.60999 | -49.00797 | 9471 ft | 281 kts | 84° |
| 2026-05-08 17:22 | -1.60801 | -48.98861 | 9177 ft | 279 kts | 84° |
| 2026-05-08 17:22 | -1.60606 | -48.96941 | 8892 ft | 277 kts | 85° |
| 2026-05-08 17:22 | -1.60411 | -48.95032 | 8604 ft | 275 kts | 85° |
| 2026-05-08 17:23 | -1.60219 | -48.93151 | 8325 ft | 274 kts | 85° |
| 2026-05-08 17:23 | -1.60032 | -48.91315 | 8057 ft | 272 kts | 85° |
| 2026-05-08 17:23 | -1.59840 | -48.89438 | 7768 ft | 271 kts | 85° |
| 2026-05-08 17:23 | -1.59650 | -48.87574 | 7500 ft | 269 kts | 85° |
| 2026-05-08 17:24 | -1.59461 | -48.85721 | 7223 ft | 268 kts | 85° |
| 2026-05-08 17:24 | -1.59386 | -48.84982 | 7116 ft | 267 kts | 85° |
| 2026-05-08 17:24 | -1.59270 | -48.83840 | 6945 ft | 266 kts | 85° |
| 2026-05-08 17:24 | -1.59082 | -48.82003 | 6678 ft | 265 kts | 85° |
| 2026-05-08 17:25 | -1.58895 | -48.80169 | 6406 ft | 265 kts | 85° |
| 2026-05-08 17:25 | -1.58709 | -48.78342 | 6122 ft | 264 kts | 85° |
| 2026-05-08 17:25 | -1.58524 | -48.76524 | 5830 ft | 263 kts | 85° |
| 2026-05-08 17:25 | -1.58339 | -48.74711 | 5551 ft | 262 kts | 85° |
| 2026-05-08 17:26 | -1.58161 | -48.72974 | 5363 ft | 243 kts | 85° |
| 2026-05-08 17:26 | -1.57996 | -48.71368 | 5196 ft | 217 kts | 86° |
| 2026-05-08 17:26 | -1.57850 | -48.69956 | 4980 ft | 199 kts | 85° |
| 2026-05-08 17:26 | -1.57709 | -48.68593 | 4690 ft | 190 kts | 85° |
| 2026-05-08 17:27 | -1.57391 | -48.67310 | 4465 ft | 208 kts | 58° |
| 2026-05-08 17:27 | -1.56386 | -48.66307 | 4268 ft | 214 kts | 45° |
| 2026-05-08 17:27 | -1.55303 | -48.65267 | 4016 ft | 202 kts | 48° |
| 2026-05-08 17:27 | -1.54343 | -48.64296 | 3784 ft | 190 kts | 48° |
| 2026-05-08 17:28 | -1.53446 | -48.63385 | 3522 ft | 178 kts | 48° |
| 2026-05-08 17:28 | -1.52599 | -48.62526 | 3425 ft | 173 kts | 48° |
| 2026-05-08 17:28 | -1.51752 | -48.61662 | 3344 ft | 173 kts | 48° |
| 2026-05-08 17:28 | -1.50935 | -48.60831 | 3314 ft | 170 kts | 49° |
| 2026-05-08 17:29 | -1.50088 | -48.59968 | 3087 ft | 171 kts | 48° |
| 2026-05-08 17:29 | -1.49272 | -48.59140 | 2887 ft | 165 kts | 49° |
| 2026-05-08 17:29 | -1.48488 | -48.58346 | 2684 ft | 148 kts | 48° |
| 2026-05-08 17:29 | -1.47772 | -48.57620 | 2469 ft | 145 kts | 49° |
| 2026-05-08 17:30 | -1.47083 | -48.56917 | 2299 ft | 145 kts | 48° |
| 2026-05-08 17:30 | -1.46380 | -48.56201 | 2108 ft | 144 kts | 47° |
| 2026-05-08 17:30 | -1.45678 | -48.55489 | 1927 ft | 144 kts | 47° |
| 2026-05-08 17:30 | -1.44969 | -48.54768 | 1747 ft | 145 kts | 47° |
| 2026-05-08 17:31 | -1.44264 | -48.54053 | 1549 ft | 144 kts | 46° |
| 2026-05-08 17:31 | -1.43564 | -48.53343 | 1369 ft | 145 kts | 46° |
| 2026-05-08 17:31 | -1.42859 | -48.52625 | 1172 ft | 145 kts | 46° |
| 2026-05-08 17:31 | -1.42160 | -48.51913 | 987 ft | 144 kts | 46° |
| 2026-05-08 17:32 | -1.41460 | -48.51201 | 817 ft | 143 kts | 45° |
| 2026-05-08 17:32 | -1.40765 | -48.50496 | 629 ft | 141 kts | 42° |
| 2026-05-08 17:32 | -1.40092 | -48.49797 | 422 ft | 138 kts | 45° |
| 2026-05-08 17:32 | -1.39414 | -48.49119 | 251 ft | 141 kts | 42° |
| 2026-05-08 17:33 | -1.38732 | -48.48428 | 54 ft | 135 kts | 43° |
| 2026-05-08 17:33 | -1.38150 | -48.47841 | 42 ft | 89 kts | 45° |
| 2026-05-08 17:33 | -1.37985 | -48.47675 | 40 ft | 21 kts | 46° |
| 2026-05-08 17:33 | -1.37972 | -48.47617 | 37 ft | 6 kts | 182° |
| 2026-05-08 17:34 | -1.38012 | -48.47621 | 39 ft | 6 kts | 187° |
| 2026-05-08 17:34 | -1.38052 | -48.47626 | 40 ft | 6 kts | 187° |
| 2026-05-08 17:34 | -1.38102 | -48.47632 | 41 ft | 9 kts | 187° |
| 2026-05-08 17:34 | -1.38176 | -48.47640 | 42 ft | 13 kts | 184° |
| 2026-05-08 17:35 | -1.38291 | -48.47649 | 42 ft | 22 kts | 185° |
| 2026-05-08 17:35 | -1.38474 | -48.47667 | 42 ft | 30 kts | 185° |
| 2026-05-08 17:35 | -1.38653 | -48.47694 | 43 ft | 18 kts | 224° |
| 2026-05-08 17:35 | -1.38683 | -48.47793 | 41 ft | 10 kts | 204° |
| 2026-05-08 17:36 | -1.38750 | -48.47799 | 42 ft | 10 kts | 185° |
| 2026-05-08 17:36 | -1.38820 | -48.47804 | 42 ft | 11 kts | 185° |
| 2026-05-08 17:36 | -1.38907 | -48.47812 | 42 ft | 13 kts | 185° |
| 2026-05-08 17:36 | -1.38960 | -48.47831 | 42 ft | 6 kts | 242° |
| 2026-05-08 17:37 | -1.38961 | -48.47872 | 42 ft | 0 kts | 275° |
| 2026-05-08 17:37 | -1.38960 | -48.47877 | 42 ft | 2 kts | 275° |
| 2026-05-08 17:37 | -1.38960 | -48.47883 | 42 ft | 0 kts | 275° |